createdAt,value
2023-01-20T00:01:16.907Z,100189.47
2023-01-20T00:03:45.739Z,100188.47
2023-01-20T00:06:16.064Z,100193.53
2023-01-20T00:08:44.543Z,100201.47
2023-01-20T00:11:14.035Z,100200.41
2023-01-20T00:13:42.562Z,100207.91
2023-01-20T00:16:12.404Z,100206.69
2023-01-20T00:18:42.591Z,100217.06
2023-01-20T00:21:12.669Z,100197.53
2023-01-20T00:23:41.714Z,100207.91
2023-01-20T00:26:12.000Z,100207.09
2023-01-20T00:28:40.728Z,100205.97
2023-01-20T00:31:13.949Z,100213.22
2023-01-20T00:33:44.549Z,100209.47
2023-01-20T00:36:13.989Z,100205.31
2023-01-20T00:38:42.471Z,100219.34
2023-01-20T00:41:11.667Z,100216.25
2023-01-20T00:43:40.060Z,100213.31
2023-01-20T00:46:09.448Z,100223.44
2023-01-20T00:48:38.855Z,100216.56
2023-01-20T00:51:10.288Z,100219.03
2023-01-20T00:53:38.889Z,100223.59
2023-01-20T00:56:08.024Z,100225.88
2023-01-20T00:58:36.589Z,100219.50
2023-01-20T01:01:05.241Z,100218.88
2023-01-20T01:03:33.694Z,100229.66
2023-01-20T01:06:12.628Z,100224.91
2023-01-20T01:08:41.689Z,100224.00
2023-01-20T01:11:11.305Z,100230.53
2023-01-20T01:13:39.929Z,100236.00
2023-01-20T01:16:12.760Z,100231.41
2023-01-20T01:18:42.059Z,100231.66
2023-01-20T01:21:13.631Z,100235.81
2023-01-20T01:23:42.331Z,100238.91
2023-01-20T01:26:11.020Z,100233.03
2023-01-20T01:28:39.853Z,100242.66
2023-01-20T01:31:09.364Z,100252.28
2023-01-20T01:33:37.943Z,100260.53
2023-01-20T01:36:08.462Z,100253.63
2023-01-20T01:38:38.389Z,100261.44
2023-01-20T01:41:07.118Z,100261.44
2023-01-20T01:43:37.816Z,100265.88
2023-01-20T01:46:07.447Z,100275.28
2023-01-20T01:48:39.798Z,100269.50
2023-01-20T01:51:12.534Z,100263.84
2023-01-20T01:53:46.636Z,100269.56
2023-01-20T01:56:17.594Z,100275.19
2023-01-20T01:58:49.840Z,100281.97
2023-01-20T02:01:19.659Z,100276.69
2023-01-20T02:03:56.015Z,100279.78
2023-01-20T02:06:28.200Z,100273.25
2023-01-20T02:08:58.727Z,100276.59
2023-01-20T02:11:27.153Z,100274.00
2023-01-20T02:13:56.003Z,100282.97
2023-01-20T02:16:32.609Z,100286.44
2023-01-20T02:19:17.789Z,100289.72
2023-01-20T02:22:10.757Z,100284.56
2023-01-20T02:25:20.252Z,100288.50
2023-01-20T02:28:25.298Z,100290.06
2023-01-20T02:31:08.956Z,100289.13
2023-01-20T02:33:44.585Z,100294.88
2023-01-20T02:36:16.633Z,100295.88
2023-01-20T02:38:49.762Z,100296.50
2023-01-20T02:41:24.740Z,100292.75
2023-01-20T02:44:02.807Z,100301.97
2023-01-20T02:46:35.913Z,100300.78
2023-01-20T02:49:13.612Z,100300.91
2023-01-20T02:51:48.440Z,100297.41
2023-01-20T02:54:19.668Z,100297.16
2023-01-20T02:56:50.879Z,100299.75
2023-01-20T02:59:24.699Z,100309.25
2023-01-20T03:01:57.978Z,100305.06
2023-01-20T03:04:31.048Z,100310.88
2023-01-20T03:07:01.915Z,100308.66
2023-01-20T03:09:34.700Z,100312.06
2023-01-20T03:12:10.334Z,100312.81
2023-01-20T03:14:39.170Z,100321.19
2023-01-20T03:17:07.600Z,100326.81
2023-01-20T03:19:37.973Z,100313.72
2023-01-20T03:22:06.907Z,100323.72
2023-01-20T03:24:37.393Z,100329.59
2023-01-20T03:27:06.668Z,100324.19
2023-01-20T03:29:35.491Z,100327.34
2023-01-20T03:32:05.820Z,100325.69
2023-01-20T03:34:38.933Z,100332.03
2023-01-20T03:37:14.783Z,100341.63
2023-01-20T03:39:43.399Z,100334.00
2023-01-20T03:42:17.270Z,100338.41
2023-01-20T03:45:01.782Z,100333.09
2023-01-20T03:47:44.621Z,100333.81
2023-01-20T03:50:26.723Z,100336.94
2023-01-20T03:52:58.492Z,100347.38
2023-01-20T03:55:33.075Z,100346.88
2023-01-20T03:58:05.075Z,100346.19
2023-01-20T04:00:38.795Z,100352.53
2023-01-20T04:03:11.723Z,100355.34
2023-01-20T04:05:43.343Z,100349.25
2023-01-20T04:08:14.734Z,100348.09
2023-01-20T04:10:47.781Z,100354.16
2023-01-20T04:13:17.082Z,100353.63
2023-01-20T04:15:46.967Z,100354.47
2023-01-20T04:18:17.810Z,100364.72
2023-01-20T04:20:51.103Z,100365.88
2023-01-20T04:23:24.602Z,100362.38
2023-01-20T04:25:53.178Z,100368.22
2023-01-20T04:28:22.238Z,100373.00
2023-01-20T04:30:50.979Z,100359.09
2023-01-20T04:33:19.522Z,100368.22
2023-01-20T04:35:49.288Z,100374.41
2023-01-20T04:38:17.868Z,100370.63
2023-01-20T04:40:46.299Z,100374.84
2023-01-20T04:43:15.565Z,100382.59
2023-01-20T04:45:44.146Z,100378.03
2023-01-20T04:48:13.031Z,100375.56
2023-01-20T04:50:43.253Z,100383.34
2023-01-20T04:53:16.885Z,100374.50
2023-01-20T04:55:45.509Z,100385.16
2023-01-20T04:58:14.045Z,100380.81
2023-01-20T05:00:43.766Z,100393.69
2023-01-20T05:03:12.354Z,100385.63
2023-01-20T05:05:40.942Z,100389.13
2023-01-20T05:08:09.538Z,100387.84
2023-01-20T05:10:39.357Z,100400.25
2023-01-20T05:13:08.369Z,100401.53
2023-01-20T05:15:37.343Z,100391.25
2023-01-20T05:18:05.990Z,100396.75
2023-01-20T05:20:35.198Z,100390.66
2023-01-20T05:23:06.583Z,100408.22
2023-01-20T05:25:34.951Z,100410.78
2023-01-20T05:28:04.909Z,100406.47
2023-01-20T05:30:39.604Z,100411.25
2023-01-20T05:33:08.063Z,100413.38
2023-01-20T05:35:38.600Z,100417.69
2023-01-20T05:38:07.217Z,100412.91
2023-01-20T05:40:35.629Z,100415.00
2023-01-20T05:43:05.693Z,100417.13
2023-01-20T05:45:34.339Z,100416.53
2023-01-20T05:48:03.152Z,100429.03
2023-01-20T05:50:31.520Z,100431.16
2023-01-20T05:53:00.310Z,100426.00
2023-01-20T05:55:28.836Z,100428.09
2023-01-20T05:57:57.160Z,100427.53
2023-01-20T06:00:27.160Z,100432.19
2023-01-20T06:02:55.655Z,100432.31
2023-01-20T06:05:24.207Z,100432.19
2023-01-20T06:07:52.772Z,100437.94
2023-01-20T06:10:21.393Z,100437.34
2023-01-20T06:12:53.287Z,100436.28
2023-01-20T06:15:23.582Z,100441.81
2023-01-20T06:17:56.137Z,100450.94
2023-01-20T06:20:24.711Z,100449.63
2023-01-20T06:22:55.875Z,100450.81
2023-01-20T06:25:24.696Z,100449.06
2023-01-20T06:27:53.041Z,100451.28
2023-01-20T06:30:21.627Z,100451.28
2023-01-20T06:32:50.003Z,100449.16
2023-01-20T06:35:19.779Z,100446.47
2023-01-20T06:37:48.327Z,100456.31
2023-01-20T06:40:17.524Z,100452.09
2023-01-20T06:42:45.939Z,100449.88
2023-01-20T06:45:16.946Z,100449.94
2023-01-20T06:47:49.533Z,100452.63
2023-01-20T06:50:19.753Z,100455.69
2023-01-20T06:52:48.228Z,100461.19
2023-01-20T06:55:17.177Z,100466.03
2023-01-20T06:57:45.733Z,100473.00
2023-01-20T07:00:15.546Z,100476.63
2023-01-20T07:02:44.258Z,100473.97
2023-01-20T07:05:13.003Z,100475.63
2023-01-20T07:07:44.869Z,100480.25
2023-01-20T07:10:14.469Z,100480.53
2023-01-20T07:12:42.809Z,100486.16
2023-01-20T07:15:12.251Z,100485.09
2023-01-20T07:17:40.735Z,100482.16
2023-01-20T07:20:10.798Z,100485.41
2023-01-20T07:22:39.404Z,100502.06
2023-01-20T07:25:10.237Z,100506.94
2023-01-20T07:27:38.682Z,100502.97
2023-01-20T07:30:08.400Z,100508.13
2023-01-20T07:32:36.795Z,100510.69
2023-01-20T07:35:06.019Z,100509.41
2023-01-20T07:37:35.267Z,100508.69
2023-01-20T07:40:04.044Z,100519.25
2023-01-20T07:42:33.892Z,100518.78
2023-01-20T07:45:02.360Z,100517.00
2023-01-20T07:47:30.940Z,100519.59
2023-01-20T07:49:59.342Z,100527.44
2023-01-20T07:52:27.746Z,100531.75
2023-01-20T07:54:56.146Z,100533.41
2023-01-20T07:57:24.577Z,100540.78
2023-01-20T07:59:54.559Z,100546.97
2023-01-20T08:02:23.269Z,100541.72
2023-01-20T08:04:51.848Z,100541.94
2023-01-20T08:07:20.308Z,100549.91
2023-01-20T08:09:50.034Z,100547.09
2023-01-20T08:12:18.678Z,100554.00
2023-01-20T08:14:47.130Z,100552.72
2023-01-20T08:17:17.294Z,100552.72
2023-01-20T08:19:45.969Z,100555.75
2023-01-20T08:22:14.473Z,100560.09
2023-01-20T08:24:42.917Z,100559.97
2023-01-20T08:27:11.444Z,100571.69
2023-01-20T08:29:39.817Z,100574.63
2023-01-20T08:32:08.434Z,100577.06
2023-01-20T08:34:38.961Z,100585.38
2023-01-20T08:37:07.705Z,100575.78
2023-01-20T08:39:36.073Z,100585.16
2023-01-20T08:42:04.673Z,100589.38
2023-01-20T08:44:33.257Z,100594.75
2023-01-20T08:47:03.090Z,100588.91
2023-01-20T08:49:31.617Z,100596.38
2023-01-20T08:52:01.637Z,100588.91
2023-01-20T08:54:34.342Z,100600.81
2023-01-20T08:57:03.077Z,100598.94
2023-01-20T08:59:31.467Z,100607.59
2023-01-20T09:01:59.896Z,100603.84
2023-01-20T09:04:28.365Z,100601.75
2023-01-20T09:06:57.259Z,100600.31
2023-01-20T09:09:27.814Z,100599.16
2023-01-20T09:11:56.218Z,100606.03
2023-01-20T09:14:27.227Z,100609.47
2023-01-20T09:16:55.772Z,100595.06
2023-01-20T09:19:24.157Z,100602.63
2023-01-20T09:21:52.723Z,100616.97
2023-01-20T09:24:25.083Z,100609.78
2023-01-20T09:26:56.740Z,100613.41
2023-01-20T09:29:25.662Z,100607.28
2023-01-20T09:31:58.142Z,100621.59
2023-01-20T09:34:29.789Z,100616.69
2023-01-20T09:37:23.205Z,100629.16
2023-01-20T09:40:09.693Z,100621.06
2023-01-20T09:43:12.659Z,100623.53
2023-01-20T09:45:50.036Z,100633.56
2023-01-20T09:48:46.046Z,100629.34
2023-01-20T09:51:37.728Z,100640.47
2023-01-20T09:54:13.268Z,100639.06
2023-01-20T09:56:47.782Z,100636.84
2023-01-20T09:59:25.806Z,100642.81
2023-01-20T10:01:58.809Z,100644.56
2023-01-20T10:04:33.825Z,100640.81
2023-01-20T10:07:11.604Z,100635.66
2023-01-20T10:09:46.069Z,100629.72
2023-01-20T10:12:19.723Z,100632.66
2023-01-20T10:14:56.356Z,100642.97
2023-01-20T10:17:30.005Z,100638.41
2023-01-20T10:20:03.994Z,100645.66
2023-01-20T10:22:38.090Z,100641.91
2023-01-20T10:25:13.850Z,100648.75
2023-01-20T10:27:51.359Z,100644.00
2023-01-20T10:30:26.734Z,100644.59
2023-01-20T10:33:01.824Z,100641.25
2023-01-20T10:35:35.928Z,100645.25
2023-01-20T10:38:08.791Z,100646.97
2023-01-20T10:40:43.153Z,100641.13
2023-01-20T10:43:14.045Z,100640.19
2023-01-20T10:45:58.577Z,100635.72
2023-01-20T10:48:42.195Z,100637.94
2023-01-20T10:51:18.247Z,100629.56
2023-01-20T10:53:56.686Z,100635.28
2023-01-20T10:56:36.676Z,100627.44
2023-01-20T10:59:12.705Z,100625.31
2023-01-20T11:01:46.151Z,100630.03
2023-01-20T11:04:20.563Z,100626.56
2023-01-20T11:06:53.182Z,100638.94
2023-01-20T11:09:28.163Z,100635.28
2023-01-20T11:11:58.720Z,100635.31
2023-01-20T11:14:27.163Z,100629.91
2023-01-20T11:17:04.359Z,100649.28
2023-01-20T11:19:54.356Z,100645.31
2023-01-20T11:22:33.675Z,100640.69
2023-01-20T11:25:06.147Z,100642.66
2023-01-20T11:27:46.428Z,100647.91
2023-01-20T11:30:27.363Z,100643.59
2023-01-20T11:33:20.339Z,100646.03
2023-01-20T11:36:07.822Z,100662.25
2023-01-20T11:38:45.129Z,100654.13
2023-01-20T11:41:27.025Z,100650.03
2023-01-20T11:43:58.517Z,100655.84
2023-01-20T11:46:33.665Z,100658.44
2023-01-20T11:49:19.803Z,100660.47
2023-01-20T11:51:51.516Z,100662.09
2023-01-20T11:54:23.301Z,100653.38
2023-01-20T11:56:57.088Z,100660.47
2023-01-20T11:59:30.235Z,100662.81
2023-01-20T12:02:02.322Z,100655.63
2023-01-20T12:05:07.937Z,100663.25
2023-01-20T12:07:46.529Z,100660.28
2023-01-20T12:10:23.288Z,100660.78
2023-01-20T12:12:56.228Z,100656.69
2023-01-20T12:15:27.327Z,100660.44
2023-01-20T12:18:04.865Z,100650.81
2023-01-20T12:20:54.852Z,100658.38
2023-01-20T12:23:45.748Z,100662.72
2023-01-20T12:26:19.641Z,100657.97
2023-01-20T12:28:55.949Z,100664.59
2023-01-20T12:31:27.611Z,100667.78
2023-01-20T12:34:00.868Z,100670.59
2023-01-20T12:36:51.551Z,100670.00
2023-01-20T12:39:55.652Z,100665.91
2023-01-20T12:42:42.879Z,100665.25
2023-01-20T12:45:24.561Z,100660.03
2023-01-20T12:48:14.015Z,100665.00
2023-01-20T12:50:57.315Z,100671.22
2023-01-20T12:53:57.189Z,100670.63
2023-01-20T12:56:40.185Z,100669.84
2023-01-20T12:59:22.900Z,100668.28
2023-01-20T13:02:09.217Z,100674.84
2023-01-20T13:05:07.023Z,100675.56
2023-01-20T13:07:47.232Z,100681.28
2023-01-20T13:10:50.997Z,100680.00
2023-01-20T13:13:48.061Z,100674.94
2023-01-20T13:16:34.298Z,100674.78
2023-01-20T13:19:09.357Z,100680.34
2023-01-20T13:21:37.995Z,100685.09
2023-01-20T13:24:07.321Z,100687.88
2023-01-20T13:26:37.706Z,100688.75
2023-01-20T13:29:21.314Z,100690.81
2023-01-20T13:31:52.757Z,100686.22
2023-01-20T13:34:35.850Z,100684.41
2023-01-20T13:37:27.367Z,100690.88
2023-01-20T13:39:58.033Z,100691.78
2023-01-20T13:42:32.521Z,100696.88
2023-01-20T13:45:27.609Z,100700.03
2023-01-20T13:47:59.449Z,100700.19
2023-01-20T13:50:32.827Z,100708.88
2023-01-20T13:53:15.313Z,100713.81
2023-01-20T13:55:54.813Z,100719.13
2023-01-20T13:58:25.544Z,100722.16
2023-01-20T14:00:56.937Z,100723.22
2023-01-20T14:03:28.807Z,100721.53
2023-01-20T14:05:59.933Z,100735.19
2023-01-20T14:08:30.580Z,100736.25
2023-01-20T14:11:11.476Z,100733.91
2023-01-20T14:13:40.556Z,100746.84
2023-01-20T14:16:20.582Z,100740.59
2023-01-20T14:18:49.730Z,100737.84
2023-01-20T14:21:26.079Z,100748.22
2023-01-20T14:23:54.719Z,100748.56
2023-01-20T14:26:25.782Z,100755.13
2023-01-20T14:28:56.207Z,100755.50
2023-01-20T14:31:35.254Z,100760.56
2023-01-20T14:34:22.810Z,100767.00
2023-01-20T14:36:52.253Z,100770.50
2023-01-20T14:39:22.865Z,100772.03
2023-01-20T14:41:52.937Z,100770.75
2023-01-20T14:44:23.198Z,100771.56
2023-01-20T14:46:56.485Z,100789.06
2023-01-20T14:49:32.609Z,100792.34
2023-01-20T14:52:02.204Z,100798.19
2023-01-20T14:54:36.303Z,100794.09
2023-01-20T14:57:18.631Z,100794.31
2023-01-20T14:59:47.421Z,100802.66
2023-01-20T15:02:22.992Z,100800.19
2023-01-20T15:04:51.618Z,100811.25
2023-01-20T15:07:28.244Z,100808.66
2023-01-20T15:10:02.951Z,100810.94
2023-01-20T15:12:34.019Z,100818.81
2023-01-20T15:15:13.911Z,100823.97
2023-01-20T15:18:06.819Z,100823.38
2023-01-20T15:20:37.033Z,100831.13
2023-01-20T15:23:15.735Z,100825.28
2023-01-20T15:25:44.346Z,100837.59
2023-01-20T15:28:24.915Z,100842.28
2023-01-20T15:30:54.944Z,100843.22
2023-01-20T15:33:25.762Z,100844.97
2023-01-20T15:35:56.173Z,100854.13
2023-01-20T15:38:25.927Z,100853.06
2023-01-20T15:40:54.389Z,100855.66
2023-01-20T15:43:24.743Z,100861.03
2023-01-20T15:45:53.200Z,100871.13
2023-01-20T15:48:24.604Z,100873.47
2023-01-20T15:50:53.009Z,100878.88
2023-01-20T15:53:21.465Z,100876.31
2023-01-20T15:55:51.877Z,100878.16
2023-01-20T15:58:26.754Z,100886.50
2023-01-20T16:00:56.446Z,100895.38
2023-01-20T16:03:27.464Z,100897.38
2023-01-20T16:05:56.974Z,100903.47
2023-01-20T16:08:30.384Z,100901.19
2023-01-20T16:10:59.048Z,100901.41
2023-01-20T16:13:27.659Z,100908.06
2023-01-20T16:15:56.969Z,100914.97
2023-01-20T16:18:26.852Z,100922.81
2023-01-20T16:20:55.380Z,100920.00
2023-01-20T16:23:24.063Z,100927.22
2023-01-20T16:25:52.557Z,100934.38
2023-01-20T16:28:24.077Z,100940.19
2023-01-20T16:30:54.156Z,100947.59
2023-01-20T16:33:24.543Z,100943.94
2023-01-20T16:35:56.011Z,100947.78
2023-01-20T16:38:26.069Z,100954.16
2023-01-20T16:40:58.379Z,100968.09
2023-01-20T16:43:26.990Z,100966.44
2023-01-20T16:45:55.956Z,100971.06
2023-01-20T16:48:26.600Z,100974.13
2023-01-20T16:50:56.727Z,100982.09
2023-01-20T16:53:25.347Z,100979.84
2023-01-20T16:55:53.733Z,100980.56
2023-01-20T16:58:22.636Z,100989.34
2023-01-20T17:00:53.023Z,100995.59
2023-01-20T17:03:21.636Z,100995.25
2023-01-20T17:05:50.086Z,101000.72
2023-01-20T17:08:19.909Z,101006.88
2023-01-20T17:10:48.783Z,101014.63
2023-01-20T17:13:17.199Z,101018.19
2023-01-20T17:15:46.690Z,101025.88
2023-01-20T17:18:15.291Z,101026.97
2023-01-20T17:20:43.806Z,101038.75
2023-01-20T17:23:12.959Z,101040.63
2023-01-20T17:25:45.807Z,101046.03
2023-01-20T17:28:14.308Z,101044.81
2023-01-20T17:30:42.771Z,101044.00
2023-01-20T17:33:11.400Z,101050.88
2023-01-20T17:35:39.969Z,101054.22
2023-01-20T17:38:08.513Z,101054.41
2023-01-20T17:40:37.197Z,101062.25
2023-01-20T17:43:07.030Z,101067.19
2023-01-20T17:45:35.615Z,101076.50
2023-01-20T17:48:04.726Z,101084.56
2023-01-20T17:50:33.683Z,101080.44
2023-01-20T17:53:02.130Z,101088.75
2023-01-20T17:55:30.565Z,101098.06
2023-01-20T17:57:59.345Z,101100.75
2023-01-20T18:00:31.324Z,101101.94
2023-01-20T18:03:00.037Z,101108.31
2023-01-20T18:05:28.675Z,101116.38
2023-01-20T18:07:57.144Z,101113.84
2023-01-20T18:10:25.591Z,101112.97
2023-01-20T18:12:53.982Z,101127.03
2023-01-20T18:15:22.549Z,101116.69
2023-01-20T18:17:52.384Z,101126.19
2023-01-20T18:20:21.335Z,101121.88
2023-01-20T18:22:50.574Z,101129.94
2023-01-20T18:25:19.241Z,101132.00
2023-01-20T18:27:47.779Z,101144.63
2023-01-20T18:30:17.215Z,101144.03
2023-01-20T18:32:46.260Z,101149.63
2023-01-20T18:35:16.052Z,101148.16
2023-01-20T18:37:44.455Z,101150.25
2023-01-20T18:40:14.116Z,101150.88
2023-01-20T18:42:44.897Z,101158.09
2023-01-20T18:45:13.343Z,101159.53
2023-01-20T18:47:41.851Z,101159.34
2023-01-20T18:50:11.379Z,101170.06
2023-01-20T18:52:41.277Z,101168.44
2023-01-20T18:55:10.406Z,101174.22
2023-01-20T18:57:38.814Z,101175.44
2023-01-20T19:00:08.827Z,101183.31
2023-01-20T19:02:37.372Z,101193.22
2023-01-20T19:05:06.703Z,101188.66
2023-01-20T19:07:35.168Z,101196.94
2023-01-20T19:10:05.579Z,101196.94
2023-01-20T19:12:34.175Z,101211.41
2023-01-20T19:15:02.663Z,101208.06
2023-01-20T19:17:33.040Z,101204.81
2023-01-20T19:20:01.535Z,101209.53
2023-01-20T19:22:30.908Z,101207.88
2023-01-20T19:25:00.191Z,101215.31
2023-01-20T19:27:32.154Z,101223.56
2023-01-20T19:30:01.091Z,101221.09
2023-01-20T19:32:29.828Z,101228.31
2023-01-20T19:34:58.286Z,101231.63
2023-01-20T19:37:27.786Z,101234.72
2023-01-20T19:39:56.706Z,101249.19
2023-01-20T19:42:25.929Z,101249.81
2023-01-20T19:44:56.067Z,101249.38
2023-01-20T19:47:24.810Z,101258.25
2023-01-20T19:49:53.328Z,101257.25
2023-01-20T19:52:22.019Z,101266.75
2023-01-20T19:54:51.952Z,101268.59
2023-01-20T19:57:20.744Z,101272.94
2023-01-20T19:59:49.306Z,101278.94
2023-01-20T20:02:19.116Z,101284.91
2023-01-20T20:04:47.560Z,101282.81
2023-01-20T20:07:16.018Z,101289.63
2023-01-20T20:09:44.696Z,101288.63
2023-01-20T20:12:13.519Z,101301.00
2023-01-20T20:14:42.803Z,101306.34
2023-01-20T20:17:11.316Z,101308.41
2023-01-20T20:19:41.233Z,101300.97
2023-01-20T20:22:09.811Z,101317.91
2023-01-20T20:24:38.210Z,101315.66
2023-01-20T20:27:06.643Z,101317.53
2023-01-20T20:29:35.111Z,101324.13
2023-01-20T20:32:03.555Z,101322.88
2023-01-20T20:34:33.449Z,101324.13
2023-01-20T20:37:03.857Z,101335.22
2023-01-20T20:39:32.251Z,101339.78
2023-01-20T20:42:00.713Z,101345.38
2023-01-20T20:44:29.090Z,101351.72
2023-01-20T20:46:57.911Z,101343.69
2023-01-20T20:49:26.433Z,101353.13
2023-01-20T20:51:54.796Z,101359.09
2023-01-20T20:54:24.739Z,101354.97
2023-01-20T20:56:53.240Z,101358.25
2023-01-20T20:59:24.608Z,101359.47
2023-01-20T21:01:54.349Z,101359.44
2023-01-20T21:04:23.118Z,101366.47
2023-01-20T21:06:51.591Z,101370.22
2023-01-20T21:09:20.180Z,101379.25
2023-01-20T21:11:50.075Z,101380.91
2023-01-20T21:14:21.242Z,101381.72
2023-01-20T21:16:50.275Z,101381.09
2023-01-20T21:19:18.740Z,101401.53
2023-01-20T21:21:47.393Z,101398.22
2023-01-20T21:24:15.806Z,101389.91
2023-01-20T21:26:44.779Z,101399.81
2023-01-20T21:29:15.001Z,101393.59
2023-01-20T21:31:43.466Z,101405.13
2023-01-20T21:34:15.453Z,101407.38
2023-01-20T21:36:43.977Z,101404.25
2023-01-20T21:39:13.117Z,101409.19
2023-01-20T21:41:42.210Z,101417.03
2023-01-20T21:44:29.728Z,101422.63
2023-01-20T21:47:01.812Z,101424.84
2023-01-20T21:49:48.187Z,101423.13
2023-01-20T21:52:36.404Z,101433.94
2023-01-20T21:55:07.428Z,101437.66
2023-01-20T21:57:36.287Z,101447.13
2023-01-20T22:00:06.881Z,101453.19
2023-01-20T22:02:36.887Z,101455.31
2023-01-20T22:05:05.913Z,101457.34
2023-01-20T22:07:34.465Z,101454.72
2023-01-20T22:10:03.031Z,101459.00
2023-01-20T22:12:34.532Z,101468.31
2023-01-20T22:15:04.061Z,101464.75
2023-01-20T22:17:32.479Z,101474.84
2023-01-20T22:20:02.475Z,101483.25
2023-01-20T22:22:30.893Z,101491.94
2023-01-20T22:24:59.621Z,101492.44
2023-01-20T22:27:28.375Z,101491.88
2023-01-20T22:29:56.967Z,101503.56
2023-01-20T22:32:26.069Z,101513.50
2023-01-20T22:34:54.507Z,101513.50
2023-01-20T22:37:24.448Z,101509.28
2023-01-20T22:39:53.113Z,101513.03
2023-01-20T22:42:21.629Z,101509.88
2023-01-20T22:44:50.089Z,101509.59
2023-01-20T22:47:18.493Z,101502.00
2023-01-20T22:49:47.009Z,101504.31
2023-01-20T22:52:15.617Z,101511.34
2023-01-20T22:54:45.450Z,101516.25
2023-01-20T22:57:13.850Z,101519.13
2023-01-20T22:59:42.357Z,101520.47
2023-01-20T23:02:10.896Z,101531.22
2023-01-20T23:04:39.511Z,101523.56
2023-01-20T23:07:07.930Z,101540.84
2023-01-20T23:09:36.391Z,101539.66
2023-01-20T23:12:06.882Z,101537.75
2023-01-20T23:14:52.139Z,101542.03
2023-01-20T23:17:20.733Z,101551.16
2023-01-20T23:19:49.121Z,101555.91
2023-01-20T23:22:18.282Z,101563.13
2023-01-20T23:24:47.104Z,101559.69
2023-01-20T23:27:19.349Z,101570.84
2023-01-20T23:29:49.102Z,101575.00
2023-01-20T23:32:17.930Z,101569.38
2023-01-20T23:34:46.486Z,101570.09
2023-01-20T23:37:14.919Z,101573.72
2023-01-20T23:39:43.434Z,101579.38
2023-01-20T23:42:11.910Z,101587.59
2023-01-20T23:44:41.717Z,101585.19
2023-01-20T23:47:10.531Z,101602.00
2023-01-20T23:49:38.911Z,101601.06
2023-01-20T23:52:07.626Z,101609.88
2023-01-20T23:54:36.142Z,101612.09
2023-01-20T23:57:04.694Z,101617.09
2023-01-20T23:59:33.110Z,101624.94
